Time;durP1;ratioP1;P1;durP2;ratioP2;P2;SDS_P1;SDS_P2;PMS_P1;PMS_P2;Temp;Humidity;BMP_temperature;BMP_pressure;BME280_temperature;BME280_humidity;BME280_pressure;Samples;Min_cycle;Max_cycle;Signal;HPM_P1;HPM_P2
2022/12/23 00:02:51;;;;;;;19.92;8.95;;;;;;;8.17;100.00;100207.56;10425630;28;20045;-86
2022/12/23 00:07:51;;;;;;;16.38;9.23;;;;;;;8.21;100.00;100206.88;10452495;28;20388;-86
2022/12/23 00:18:11;;;;;;;25.13;9.57;;;;;;;8.27;100.00;100218.44;10406566;28;20053;-87
2022/12/23 00:23:11;;;;;;;19.17;10.52;;;;;;;8.30;100.00;100218.56;10408435;28;20040;-86
2022/12/23 00:28:14;;;;;;;24.83;10.18;;;;;;;8.36;100.00;100218.84;10407838;28;20038;-88
2022/12/23 00:33:15;;;;;;;42.63;12.45;;;;;;;8.34;100.00;100223.09;10379741;28;20063;-87
2022/12/23 00:38:16;;;;;;;21.40;12.40;;;;;;;8.33;100.00;100221.31;10408193;28;20049;-88
2022/12/23 00:43:17;;;;;;;21.15;10.82;;;;;;;8.27;100.00;100221.94;10419494;28;20087;-87
2022/12/23 00:53:36;;;;;;;25.55;9.85;;;;;;;8.28;100.00;100226.34;10475685;28;20036;-87
2022/12/23 00:58:37;;;;;;;24.48;11.13;;;;;;;8.16;100.00;100236.19;10464332;28;20485;-88
2022/12/23 01:08:56;;;;;;;28.77;12.60;;;;;;;8.31;100.00;100264.69;10428306;28;20125;-87
2022/12/23 01:13:57;;;;;;;27.27;14.18;;;;;;;8.35;100.00;100269.22;10436363;28;20040;-86
2022/12/23 01:18:58;;;;;;;22.50;10.77;;;;;;;8.36;100.00;100266.69;10425965;28;20102;-87
2022/12/23 01:23:58;;;;;;;23.10;9.85;;;;;;;8.36;100.00;100269.31;10433622;28;20072;-87
2022/12/23 01:29:00;;;;;;;27.63;11.43;;;;;;;8.35;100.00;100267.50;10424780;28;20049;-88
2022/12/23 01:34:00;;;;;;;32.20;13.50;;;;;;;8.37;100.00;100280.63;10411521;28;20029;-88
2022/12/23 01:39:01;;;;;;;20.05;9.60;;;;;;;8.35;100.00;100277.94;10417891;28;20488;-88
2022/12/23 01:44:01;;;;;;;23.05;13.07;;;;;;;8.29;100.00;100269.84;10414936;28;20086;-88
2022/12/23 01:49:02;;;;;;;21.73;11.27;;;;;;;8.27;100.00;100276.69;10428153;28;20116;-88
2022/12/23 01:54:03;;;;;;;22.33;12.32;;;;;;;8.26;100.00;100272.28;10426793;28;20396;-87
2022/12/23 02:03:40;;;;;;;22.30;11.10;;;;;;;8.10;100.00;100265.44;10410176;28;20042;-87
2022/12/23 02:04:32;;;;;;;22.95;12.55;;;;;;;7.96;100.00;100280.44;10449802;28;20132;-85
2022/12/23 02:09:36;;;;;;;26.00;11.57;;;;;;;7.89;100.00;100287.03;10479877;28;20037;-88
2022/12/23 02:20:40;;;;;;;26.50;12.80;;;;;;;7.98;100.00;100301.34;10431554;28;20041;-87
2022/12/23 02:25:43;;;;;;;30.17;14.82;;;;;;;8.10;100.00;100307.16;10409734;28;20049;-87
2022/12/23 02:30:49;;;;;;;26.27;15.45;;;;;;;8.13;100.00;100317.72;10447810;28;20049;-88
2022/12/23 02:36:06;;;;;;;26.10;14.73;;;;;;;8.19;100.00;100315.41;10441853;28;20037;-87
2022/12/23 02:41:27;;;;;;;32.20;14.65;;;;;;;8.20;100.00;100319.81;10447847;28;20043;-87
2022/12/23 02:46:32;;;;;;;27.30;17.15;;;;;;;8.27;100.00;100322.72;10452850;28;20144;-88
2022/12/23 02:51:35;;;;;;;25.33;14.98;;;;;;;8.30;100.00;100341.09;10458659;28;20548;-87
2022/12/23 02:56:37;;;;;;;25.40;13.60;;;;;;;8.31;100.00;100355.94;10404363;28;20132;-87
2022/12/23 03:01:37;;;;;;;29.03;14.83;;;;;;;8.33;100.00;100367.31;10459290;28;20493;-88
2022/12/23 03:06:42;;;;;;;32.13;15.63;;;;;;;8.25;100.00;100372.19;10411749;28;21112;-89
2022/12/23 03:12:04;;;;;;;24.92;15.88;;;;;;;8.25;100.00;100368.66;10470968;28;20032;-89
2022/12/23 03:17:13;;;;;;;29.07;16.30;;;;;;;8.23;100.00;100360.78;10463137;28;20038;-89
2022/12/23 03:22:29;;;;;;;36.03;17.70;;;;;;;8.21;100.00;100368.53;10459442;28;20052;-89
2022/12/23 03:27:42;;;;;;;33.88;17.10;;;;;;;8.20;100.00;100374.56;10430585;28;20041;-90
2022/12/23 03:32:54;;;;;;;49.90;17.08;;;;;;;8.16;100.00;100366.53;10428322;28;20045;-90
2022/12/23 03:37:54;;;;;;;29.30;14.05;;;;;;;8.12;100.00;100365.47;10425459;28;20106;-89
2022/12/23 03:43:00;;;;;;;32.03;15.63;;;;;;;8.08;100.00;100367.03;10467622;28;20512;-90
2022/12/23 03:48:11;;;;;;;29.02;14.73;;;;;;;8.06;100.00;100360.84;10424152;28;21381;-90
2022/12/23 03:53:22;;;;;;;29.58;15.85;;;;;;;8.06;100.00;100362.53;10439999;28;20068;-88
2022/12/23 03:58:28;;;;;;;35.08;14.23;;;;;;;8.02;100.00;100356.31;10462151;28;20090;-90
2022/12/23 04:03:38;;;;;;;32.90;14.77;;;;;;;8.04;100.00;100354.66;10440142;28;20041;-85
2022/12/23 04:08:38;;;;;;;53.47;17.02;;;;;;;8.04;100.00;100359.88;10435802;28;20072;-89
2022/12/23 04:13:39;;;;;;;28.80;13.40;;;;;;;8.00;100.00;100376.19;10450323;28;20036;-88
2022/12/23 04:18:39;;;;;;;27.92;14.75;;;;;;;8.01;100.00;100369.25;10462206;28;20048;-89
2022/12/23 04:23:40;;;;;;;35.03;14.05;;;;;;;8.01;100.00;100364.94;10441525;28;20431;-88
2022/12/23 04:28:40;;;;;;;23.67;13.13;;;;;;;8.03;100.00;100371.13;10447669;28;20037;-89
2022/12/23 04:33:41;;;;;;;23.55;12.82;;;;;;;7.99;100.00;100384.81;10488069;28;20064;-89
2022/12/23 04:38:41;;;;;;;20.77;11.23;;;;;;;8.01;100.00;100388.41;10485496;28;20039;-89
2022/12/23 04:43:42;;;;;;;23.95;14.30;;;;;;;7.98;100.00;100397.75;10467152;28;20484;-89
2022/12/23 04:48:42;;;;;;;32.10;15.68;;;;;;;7.96;100.00;100395.09;10465541;28;20047;-88
2022/12/23 04:53:43;;;;;;;30.17;14.00;;;;;;;7.97;100.00;100393.38;10456751;28;20048;-88
2022/12/23 04:58:43;;;;;;;26.85;12.95;;;;;;;7.93;100.00;100398.41;10467177;28;20045;-82
2022/12/23 05:03:44;;;;;;;27.90;13.63;;;;;;;7.92;100.00;100391.41;10478833;28;20072;-89
2022/12/23 05:08:44;;;;;;;34.53;15.70;;;;;;;7.94;100.00;100388.91;10452321;28;20042;-89
2022/12/23 05:13:45;;;;;;;34.50;17.13;;;;;;;7.92;100.00;100386.22;10435220;28;20046;-89
2022/12/23 05:18:45;;;;;;;27.63;13.52;;;;;;;7.90;100.00;100385.22;10430869;28;20181;-89
2022/12/23 05:23:46;;;;;;;29.13;14.48;;;;;;;7.91;100.00;100388.75;10470517;28;20040;-86
2022/12/23 05:28:46;;;;;;;29.90;14.63;;;;;;;7.93;100.00;100398.41;10451202;28;20488;-89
2022/12/23 05:33:47;;;;;;;33.33;17.08;;;;;;;7.94;100.00;100421.06;10428478;28;20033;-86
2022/12/23 05:38:47;;;;;;;33.10;17.50;;;;;;;7.89;100.00;100430.34;10457316;28;20063;-84
2022/12/23 05:43:48;;;;;;;39.70;20.23;;;;;;;7.89;100.00;100437.28;10474625;28;20039;-88
2022/12/23 05:48:48;;;;;;;31.60;16.98;;;;;;;7.91;100.00;100431.31;10455833;28;20128;-88
2022/12/23 05:53:49;;;;;;;24.92;13.40;;;;;;;7.90;100.00;100433.88;10468004;28;20384;-87
2022/12/23 05:58:49;;;;;;;33.85;16.77;;;;;;;7.94;100.00;100428.88;10473015;28;20430;-85
2022/12/23 06:03:50;;;;;;;29.83;13.98;;;;;;;7.94;100.00;100428.88;10478390;28;20083;-87
2022/12/23 06:08:51;;;;;;;24.90;12.38;;;;;;;7.89;100.00;100417.31;10481735;28;20136;-89
2022/12/23 06:13:51;;;;;;;28.08;15.00;;;;;;;7.90;100.00;100411.28;10465166;28;20041;-86
2022/12/23 06:18:55;;;;;;;25.40;12.32;;;;;;;7.86;100.00;100398.91;10442010;28;20047;-83
2022/12/23 06:23:55;;;;;;;29.70;13.68;;;;;;;7.91;100.00;100410.47;10444167;28;20120;-92
2022/12/23 06:28:57;;;;;;;25.30;11.60;;;;;;;7.98;100.00;100405.56;10430902;28;20119;-88
2022/12/23 06:33:57;;;;;;;24.40;11.65;;;;;;;7.93;100.00;100401.03;10442544;28;20047;-87
2022/12/23 06:38:58;;;;;;;22.70;11.18;;;;;;;7.91;100.00;100401.78;10457851;28;20057;-87
2022/12/23 06:43:58;;;;;;;25.67;13.60;;;;;;;7.86;100.00;100387.63;10441740;28;20110;-87
2022/12/23 06:48:59;;;;;;;34.67;14.18;;;;;;;7.83;100.00;100390.06;10461860;28;20044;-87
2022/12/23 06:53:59;;;;;;;26.65;14.70;;;;;;;7.86;100.00;100401.53;10477503;28;20484;-87
2022/12/23 06:59:00;;;;;;;26.77;12.05;;;;;;;7.89;100.00;100432.06;10426519;28;20045;-88
2022/12/23 07:04:01;;;;;;;35.30;16.00;;;;;;;7.87;100.00;100468.47;10435748;28;20120;-86
2022/12/23 07:09:02;;;;;;;27.40;10.38;;;;;;;7.91;100.00;100449.56;10436639;28;20053;-87
2022/12/23 07:14:02;;;;;;;26.55;13.02;;;;;;;7.87;100.00;100463.25;10446265;28;20123;-85
2022/12/23 07:19:03;;;;;;;27.85;12.73;;;;;;;7.86;100.00;100486.63;10472097;28;20075;-82
2022/12/23 07:24:04;;;;;;;24.95;12.60;;;;;;;7.87;100.00;100478.88;10441559;28;20053;-82
2022/12/23 07:29:05;;;;;;;26.58;13.20;;;;;;;7.83;100.00;100478.66;10443815;28;20038;-87
2022/12/23 07:34:05;;;;;;;24.20;12.30;;;;;;;7.86;100.00;100471.00;10438682;28;20071;-85
2022/12/23 07:39:06;;;;;;;26.92;12.70;;;;;;;7.87;100.00;100462.38;10431420;28;20041;-86
2022/12/23 07:44:07;;;;;;;32.78;13.73;;;;;;;7.81;100.00;100457.72;10458483;28;20426;-86
2022/12/23 07:49:08;;;;;;;28.75;13.60;;;;;;;7.74;100.00;100453.00;10445522;28;20048;-85
2022/12/23 07:54:11;;;;;;;25.80;11.85;;;;;;;7.67;100.00;100441.38;10473660;28;20040;-86
2022/12/23 07:59:12;;;;;;;27.48;14.70;;;;;;;7.54;100.00;100445.03;10443537;28;20902;-86
2022/12/23 08:04:12;;;;;;;28.90;11.27;;;;;;;7.53;100.00;100445.84;10456035;28;20107;-85
2022/12/23 08:09:14;;;;;;;26.67;14.07;;;;;;;7.54;100.00;100445.03;10473551;28;20127;-85
2022/12/23 08:14:15;;;;;;;30.88;13.35;;;;;;;7.50;100.00;100432.66;10458176;28;20049;-85
2022/12/23 08:19:15;;;;;;;39.88;13.30;;;;;;;7.45;100.00;100440.25;10456351;28;20051;-86
2022/12/23 08:24:16;;;;;;;28.67;12.50;;;;;;;7.39;100.00;100441.59;10454595;28;20043;-84
2022/12/23 08:29:16;;;;;;;31.83;14.80;;;;;;;7.44;100.00;100425.44;10419836;28;20081;-83
2022/12/23 08:34:18;;;;;;;25.73;13.30;;;;;;;7.45;100.00;100429.81;10412099;28;20114;-83
2022/12/23 08:39:18;;;;;;;28.03;14.13;;;;;;;7.45;100.00;100442.84;10413230;28;20090;-84
2022/12/23 08:44:19;;;;;;;28.30;12.35;;;;;;;7.53;100.00;100444.97;10424939;28;20118;-83
2022/12/23 08:49:20;;;;;;;24.25;12.80;;;;;;;7.59;100.00;100438.34;10450549;28;20072;-82
2022/12/23 08:54:22;;;;;;;24.38;12.15;;;;;;;7.61;100.00;100436.72;10443501;28;20051;-85
2022/12/23 08:59:23;;;;;;;18.30;10.30;;;;;;;7.68;100.00;100424.94;10476426;28;20041;-85
2022/12/23 09:04:23;;;;;;;24.45;12.70;;;;;;;7.72;100.00;100412.94;10428644;28;20132;-83
2022/12/23 09:09:24;;;;;;;23.55;11.23;;;;;;;7.73;100.00;100413.03;10428508;28;20123;-84
2022/12/23 09:14:24;;;;;;;34.75;12.35;;;;;;;7.67;100.00;100411.81;10456261;28;20447;-85
2022/12/23 09:19:25;;;;;;;20.38;12.40;;;;;;;7.68;100.00;100397.97;10467001;28;20123;-85
2022/12/23 09:24:25;;;;;;;25.55;13.18;;;;;;;7.67;100.00;100376.25;10461237;28;20127;-84
2022/12/23 09:29:26;;;;;;;23.58;13.50;;;;;;;7.63;100.00;100380.41;10465657;28;20124;-86
2022/12/23 09:34:26;;;;;;;23.35;12.13;;;;;;;7.67;100.00;100367.53;10427735;28;20561;-84
2022/12/23 09:39:27;;;;;;;24.13;11.57;;;;;;;7.65;100.00;100367.47;10393078;28;20040;-86
2022/12/23 09:44:46;;;;;;;31.77;12.18;;;;;;;7.66;100.00;100365.75;10382490;28;20121;-85
2022/12/23 09:49:52;;;;;;;24.90;12.27;;;;;;;7.72;100.00;100360.84;10400503;28;20041;-86
2022/12/23 09:54:53;;;;;;;18.30;11.00;;;;;;;7.79;100.00;100339.50;10381750;28;20083;-87
2022/12/23 09:59:54;;;;;;;24.23;13.30;;;;;;;7.82;100.00;100326.63;10385652;28;20182;-86
2022/12/23 10:05:21;;;;;;;20.88;10.90;;;;;;;7.86;100.00;100325.97;10404139;28;20041;-87
2022/12/23 10:11:02;;;;;;;19.42;9.85;;;;;;;8.04;100.00;100325.09;10403532;28;20184;-87
2022/12/23 10:16:08;;;;;;;22.58;11.88;;;;;;;8.27;100.00;100333.13;10428248;28;20048;-87
2022/12/23 10:21:29;;;;;;;19.15;9.38;;;;;;;8.37;100.00;100335.38;10447039;28;20488;-87
2022/12/23 10:27:03;;;;;;;20.10;7.55;;;;;;;8.32;100.00;100329.94;10468459;28;20449;-85
2022/12/23 10:32:09;;;;;;;20.95;7.38;;;;;;;8.21;100.00;100308.56;10457404;28;20067;-85
2022/12/23 10:37:40;;;;;;;11.60;6.10;;;;;;;8.29;100.00;100292.38;10482938;28;20135;-85
2022/12/23 10:43:05;;;;;;;18.45;6.50;;;;;;;8.31;100.00;100278.63;10466594;28;20037;-83
2022/12/23 10:48:40;;;;;;;15.05;6.93;;;;;;;8.27;100.00;100275.78;10435203;28;20432;-85
2022/12/23 10:53:53;;;;;;;12.63;7.35;;;;;;;8.19;100.00;100263.28;10458669;28;20037;-85
2022/12/23 10:58:55;;;;;;;12.93;6.95;;;;;;;8.10;100.00;100247.19;10425443;28;20370;-90
2022/12/23 11:04:14;;;;;;;14.77;6.88;;;;;;;8.10;100.00;100241.97;10425401;28;20493;-86
2022/12/23 11:09:19;;;;;;;15.93;7.72;;;;;;;8.16;100.00;100221.44;10441533;28;20036;-87
2022/12/23 11:14:50;;;;;;;15.15;5.72;;;;;;;8.26;100.00;100214.03;10434755;28;20037;-84
2022/12/23 11:20:12;;;;;;;21.15;8.30;;;;;;;8.33;100.00;100190.03;10476074;28;20382;-84
2022/12/23 11:25:36;;;;;;;15.00;6.85;;;;;;;8.28;100.00;100168.97;10440593;28;20048;-85
2022/12/23 11:30:41;;;;;;;15.90;7.40;;;;;;;8.13;100.00;100143.09;10441578;28;20045;-86
2022/12/23 11:35:41;;;;;;;19.42;6.80;;;;;;;8.10;100.00;100131.63;10442809;28;20040;-87
2022/12/23 11:40:45;;;;;;;18.05;8.50;;;;;;;8.03;100.00;100120.94;10468465;28;20123;-86
2022/12/23 11:45:46;;;;;;;16.17;6.90;;;;;;;7.93;100.00;100122.22;10465020;28;20119;-88
2022/12/23 11:50:46;;;;;;;19.00;8.82;;;;;;;7.86;100.00;100127.94;10441683;28;20097;-87
2022/12/23 11:56:06;;;;;;;20.92;7.25;;;;;;;7.83;100.00;100112.19;10422637;28;20484;-83
2022/12/23 12:01:12;;;;;;;17.88;6.60;;;;;;;7.77;100.00;100085.84;10467187;28;20469;-86
2022/12/23 12:06:14;;;;;;;14.43;8.70;;;;;;;7.74;100.00;100072.69;10445582;28;20469;-93
2022/12/23 12:11:27;;;;;;;24.50;9.27;;;;;;;7.74;100.00;100050.16;10439423;28;20099;-81
2022/12/23 12:16:33;;;;;;;16.30;9.27;;;;;;;7.91;100.00;100050.03;10472951;28;20051;-85
2022/12/23 12:21:36;;;;;;;21.20;9.52;;;;;;;7.98;100.00;100044.25;10481857;28;20040;-88
2022/12/23 12:26:37;;;;;;;29.75;14.73;;;;;;;7.97;100.00;100025.94;10454967;28;20040;-85
2022/12/23 12:31:38;;;;;;;19.90;10.98;;;;;;;8.00;100.00;100005.22;10437781;28;20052;-83
2022/12/23 12:36:59;;;;;;;22.42;9.57;;;;;;;7.92;100.00;99974.50;10440198;28;20040;-82
2022/12/23 12:42:20;;;;;;;16.48;8.65;;;;;;;7.89;100.00;99987.41;10456910;28;20068;-82
2022/12/23 12:47:31;;;;;;;10.13;5.88;;;;;;;7.82;100.00;99987.94;10468729;28;20049;-83
2022/12/23 12:52:35;;;;;;;12.25;7.85;;;;;;;7.78;100.00;99949.56;10469985;28;20497;-87
2022/12/23 12:57:35;;;;;;;15.43;6.95;;;;;;;7.70;100.00;99951.84;10460769;28;20125;-81
2022/12/23 13:02:46;;;;;;;13.82;7.35;;;;;;;7.69;100.00;99944.84;10441913;28;20041;-85
2022/12/23 13:07:51;;;;;;;12.25;6.22;;;;;;;7.69;100.00;99930.94;10441996;28;20040;-82
2022/12/23 13:13:22;;;;;;;11.40;4.95;;;;;;;7.67;100.00;99909.13;10398500;28;20628;-86
2022/12/23 13:18:34;;;;;;;16.13;6.18;;;;;;;7.66;100.00;99882.22;10409491;28;20037;-84
2022/12/23 13:23:58;;;;;;;11.52;5.38;;;;;;;7.68;100.00;99874.44;10455932;28;20061;-82
2022/12/23 13:29:17;;;;;;;12.00;5.05;;;;;;;7.73;100.00;99862.50;10461901;28;20392;-88
2022/12/23 13:34:43;;;;;;;9.27;5.07;;;;;;;7.73;100.00;99850.41;10472246;28;20103;-84
2022/12/23 13:40:08;;;;;;;10.07;6.90;;;;;;;7.72;100.00;99852.91;10459079;28;20045;-88
2022/12/23 13:45:16;;;;;;;7.43;5.22;;;;;;;7.73;100.00;99849.50;10443620;28;20523;-83
2022/12/23 13:50:38;;;;;;;9.60;5.93;;;;;;;7.67;100.00;99838.81;10459803;28;20466;-87
2022/12/23 13:56:21;;;;;;;7.20;4.93;;;;;;;7.64;100.00;99824.84;10423228;28;20084;-85
2022/12/23 14:01:51;;;;;;;9.27;4.68;;;;;;;7.63;100.00;99807.44;10440851;28;20088;-82
2022/12/23 14:06:55;;;;;;;9.82;6.00;;;;;;;7.73;100.00;99797.41;10440748;28;20037;-90
2022/12/23 14:11:55;;;;;;;7.70;5.22;;;;;;;7.84;100.00;99793.53;10423267;28;20084;-83
2022/12/23 14:17:01;;;;;;;10.05;6.38;;;;;;;7.88;100.00;99777.19;10441042;28;20128;-88
2022/12/23 14:22:39;;;;;;;10.65;6.32;;;;;;;7.87;100.00;99774.53;10440863;28;20047;-86
2022/12/23 14:28:01;;;;;;;10.35;7.20;;;;;;;7.90;100.00;99769.47;10451972;28;20044;-89
2022/12/23 14:33:05;;;;;;;7.10;5.15;;;;;;;7.96;100.00;99774.91;10440454;28;20485;-91
2022/12/23 14:38:14;;;;;;;13.07;7.55;;;;;;;8.10;100.00;99775.47;10429492;28;20037;-89
2022/12/23 14:43:21;;;;;;;12.70;7.25;;;;;;;8.34;100.00;99779.88;10448574;28;20049;-90
2022/12/23 14:48:33;;;;;;;12.48;6.38;;;;;;;8.63;100.00;99769.69;10441285;28;20393;-89
2022/12/23 14:53:55;;;;;;;9.02;6.80;;;;;;;8.79;100.00;99779.88;10416514;28;20052;-87
2022/12/23 14:59:02;;;;;;;;;;;;;;;8.99;100.00;99777.13;10416358;28;20532;-83
2022/12/23 15:04:28;;;;;;;10.52;5.13;;;;;;;9.39;100.00;99783.75;10401447;28;19947;-83
2022/12/23 15:09:31;;;;;;;10.85;4.65;;;;;;;9.75;100.00;99795.44;10389898;28;20438;-84
2022/12/23 15:14:38;;;;;;;7.75;5.20;;;;;;;10.03;100.00;99795.47;10398491;28;20127;-83
2022/12/23 15:19:43;;;;;;;6.45;4.70;;;;;;;10.12;100.00;99793.13;10396777;28;20044;-86
2022/12/23 15:24:44;;;;;;;8.43;4.75;;;;;;;10.18;100.00;99798.56;10431741;28;20128;-86
2022/12/23 15:29:48;;;;;;;6.28;4.47;;;;;;;10.26;100.00;99802.31;10399828;28;20477;-86
2022/12/23 15:34:49;;;;;;;8.75;4.43;;;;;;;10.33;100.00;99810.34;10398226;28;20029;-85
2022/12/23 15:39:49;;;;;;;7.82;3.15;;;;;;;10.37;100.00;99814.84;10423396;28;20044;-86
2022/12/23 15:44:50;;;;;;;10.02;3.33;;;;;;;10.46;100.00;99815.16;10423266;28;20063;-87
2022/12/23 15:49:50;;;;;;;4.70;2.70;;;;;;;10.51;100.00;99834.50;10442676;28;20128;-86
2022/12/23 15:55:02;;;;;;;5.93;3.50;;;;;;;10.52;100.00;99830.19;10423179;28;20063;-84
2022/12/23 16:00:03;;;;;;;5.40;2.90;;;;;;;10.55;100.00;99846.84;10424331;28;20037;-90
2022/12/23 16:05:04;;;;;;;6.32;1.85;;;;;;;10.61;100.00;99856.63;10438564;28;20393;-87
2022/12/23 16:10:17;;;;;;;5.15;1.92;;;;;;;10.66;100.00;99868.13;10414404;28;20041;-89
2022/12/23 16:15:36;;;;;;;4.43;2.85;;;;;;;10.69;100.00;99881.31;10397604;28;20048;-85
2022/12/23 16:20:56;;;;;;;4.45;1.83;;;;;;;10.64;100.00;99879.38;10400498;28;20107;-86
2022/12/23 16:25:57;;;;;;;7.95;2.75;;;;;;;10.64;100.00;99885.50;10420875;28;20131;-86
2022/12/23 16:30:57;;;;;;;7.75;2.10;;;;;;;10.67;100.00;99897.78;10405947;28;20045;-87
2022/12/23 16:36:19;;;;;;;5.30;2.50;;;;;;;10.68;100.00;99917.88;10442979;28;20583;-85
2022/12/23 16:41:20;;;;;;;7.03;2.25;;;;;;;10.66;100.00;99907.38;10444181;28;20044;-86
2022/12/23 16:46:21;;;;;;;9.73;2.58;;;;;;;10.63;100.00;99933.44;10448051;28;20573;-87
2022/12/23 16:51:22;;;;;;;11.65;2.72;;;;;;;10.54;100.00;99934.03;10442784;28;20033;-87
2022/12/23 16:56:26;;;;;;;9.98;2.80;;;;;;;10.41;100.00;99931.84;10470298;28;20451;-86
2022/12/23 17:01:29;;;;;;;18.00;3.83;;;;;;;10.36;100.00;99947.38;10452766;28;20392;-87
2022/12/23 17:06:30;;;;;;;8.35;4.82;;;;;;;10.31;100.00;99964.63;10430750;28;20120;-89
2022/12/23 17:11:39;;;;;;;15.90;3.63;;;;;;;10.19;100.00;99959.84;10448323;28;20045;-89
2022/12/23 17:16:39;;;;;;;12.60;3.47;;;;;;;10.23;100.00;99982.66;10465704;28;20540;-93
2022/12/23 17:21:41;;;;;;;13.18;3.55;;;;;;;10.36;100.00;99960.44;10424975;28;20118;-93
2022/12/23 17:26:41;;;;;;;10.77;3.28;;;;;;;10.37;100.00;99971.78;10402265;28;20037;-91
2022/12/23 17:31:42;;;;;;;16.05;3.60;;;;;;;10.35;100.00;99974.34;10437996;28;20120;-87
2022/12/23 17:36:43;;;;;;;41.92;19.23;;;;;;;10.32;100.00;99975.97;10411404;28;20060;-90
2022/12/23 17:41:43;;;;;;;15.05;5.47;;;;;;;10.28;100.00;99982.84;10400313;28;20034;-91
2022/12/23 17:46:44;;;;;;;16.52;4.85;;;;;;;10.23;100.00;99982.66;10403043;28;20485;-89
2022/12/23 17:51:44;;;;;;;12.02;4.43;;;;;;;10.20;100.00;99986.91;10404500;28;20041;-90
2022/12/23 17:56:45;;;;;;;19.05;6.90;;;;;;;10.16;100.00;100001.56;10418417;28;20069;-89
2022/12/23 18:01:45;;;;;;;18.67;4.57;;;;;;;10.19;100.00;100001.69;10435362;28;20056;-90
2022/12/23 18:06:46;;;;;;;14.13;5.00;;;;;;;10.23;100.00;100008.81;10443521;28;20051;-90
2022/12/23 18:11:47;;;;;;;25.33;7.43;;;;;;;10.21;100.00;100005.25;10391375;28;20102;-90
2022/12/23 18:16:47;;;;;;;22.38;6.32;;;;;;;10.25;100.00;100014.09;10421180;28;20136;-89
2022/12/23 18:21:48;;;;;;;30.05;6.45;;;;;;;10.21;100.00;100022.69;10411327;28;20033;-86
2022/12/23 18:26:48;;;;;;;27.42;6.85;;;;;;;9.94;100.00;100032.19;10385027;28;20051;-85
2022/12/23 18:31:49;;;;;;;27.15;7.68;;;;;;;9.77;100.00;100049.88;10403963;28;20077;-91
2022/12/23 18:36:50;;;;;;;23.77;5.35;;;;;;;9.77;100.00;100064.63;10401626;28;20069;-89
2022/12/23 18:41:50;;;;;;;34.10;9.48;;;;;;;9.84;100.00;100067.56;10406590;28;20057;-89
2022/12/23 18:46:51;;;;;;;28.38;7.72;;;;;;;9.80;100.00;100063.03;10407165;28;20037;-88
2022/12/23 18:51:51;;;;;;;29.30;8.85;;;;;;;9.85;100.00;100060.59;10404456;28;20043;-88
2022/12/23 18:56:52;;;;;;;19.00;6.40;;;;;;;9.92;100.00;100064.34;10402680;28;20076;-88
2022/12/23 19:01:53;;;;;;;24.80;7.18;;;;;;;10.02;100.00;100066.47;10431156;28;20546;-87
2022/12/23 19:06:54;;;;;;;19.70;6.03;;;;;;;9.96;100.00;100059.25;10416203;28;20044;-87
2022/12/23 19:11:56;;;;;;;27.23;7.70;;;;;;;9.81;100.00;100064.81;10402914;28;20191;-87
2022/12/23 19:16:58;;;;;;;20.43;7.50;;;;;;;9.88;100.00;100063.31;10398760;28;20048;-90
2022/12/23 19:21:59;;;;;;;21.25;7.18;;;;;;;9.83;100.00;100071.00;10388840;28;20044;-88
2022/12/23 19:26:59;;;;;;;24.48;7.45;;;;;;;9.76;100.00;100079.44;10402740;28;20393;-89
2022/12/23 19:32:00;;;;;;;22.98;8.75;;;;;;;9.73;100.00;100094.09;10400681;28;20041;-89
2022/12/23 19:37:00;;;;;;;17.63;7.20;;;;;;;9.68;100.00;100107.88;10390535;28;20106;-89
2022/12/23 19:42:01;;;;;;;28.55;8.23;;;;;;;9.54;100.00;100120.41;10421787;28;20068;-88
2022/12/23 19:47:03;;;;;;;22.50;8.10;;;;;;;9.49;100.00;100142.84;10401175;28;20042;-89
2022/12/23 19:52:04;;;;;;;26.77;7.32;;;;;;;9.52;100.00;100142.97;10417532;28;20044;-87
2022/12/23 19:57:04;;;;;;;21.38;7.10;;;;;;;9.60;100.00;100156.31;10399546;28;20042;-88
2022/12/23 20:02:05;;;;;;;27.10;8.05;;;;;;;9.63;100.00;100155.56;10400438;28;20486;-86
2022/12/23 20:07:05;;;;;;;19.17;5.82;;;;;;;9.57;100.00;100164.03;10405228;28;20034;-91
2022/12/23 20:12:06;;;;;;;29.35;6.32;;;;;;;9.52;100.00;100165.56;10410453;28;20033;-88
2022/12/23 20:17:07;;;;;;;16.30;6.88;;;;;;;9.49;100.00;100173.28;10383315;28;20048;-94
2022/12/23 20:22:07;;;;;;;28.70;8.57;;;;;;;9.60;100.00;100176.34;10415245;28;20382;-86
2022/12/23 20:27:08;;;;;;;31.95;7.65;;;;;;;9.60;100.00;100185.06;10422713;28;20064;-95
2022/12/23 20:32:09;;;;;;;21.67;7.45;;;;;;;9.57;100.00;100190.16;10432281;28;20090;-92
2022/12/23 20:37:10;;;;;;;32.38;8.02;;;;;;;9.58;100.00;100191.06;10424089;28;20094;-93
2022/12/23 20:42:11;;;;;;;26.87;8.63;;;;;;;9.66;100.00;100198.38;10413507;28;20623;-87
2022/12/23 20:47:18;;;;;;;22.85;11.35;;;;;;;9.55;100.00;100215.31;10444669;28;20132;-93
2022/12/23 20:52:18;;;;;;;18.58;7.45;;;;;;;9.38;100.00;100233.78;10429518;28;20113;-95
2022/12/23 20:57:19;;;;;;;26.63;7.85;;;;;;;9.39;100.00;100240.81;10396951;28;20045;-90
2022/12/23 21:02:19;;;;;;;28.83;7.07;;;;;;;9.40;100.00;100255.66;10458322;28;20058;-85
2022/12/23 21:07:20;;;;;;;20.75;6.05;;;;;;;9.38;100.00;100252.09;10437761;28;20041;-89
2022/12/23 21:12:20;;;;;;;25.95;7.35;;;;;;;9.42;100.00;100283.56;10412346;28;20048;-91
2022/12/23 21:17:22;;;;;;;16.50;6.07;;;;;;;9.43;100.00;100286.25;10414186;28;20067;-90
2022/12/23 21:22:23;;;;;;;33.45;9.05;;;;;;;9.36;100.00;100289.41;10420061;28;20041;-92
2022/12/23 21:27:23;;;;;;;20.75;6.90;;;;;;;9.38;100.00;100293.88;10414822;28;20123;-92
2022/12/23 21:32:24;;;;;;;25.45;7.57;;;;;;;9.39;100.00;100293.03;10446980;28;20036;-94
2022/12/23 21:37:26;;;;;;;23.35;7.50;;;;;;;9.39;100.00;100295.66;10378570;28;20484;-93
2022/12/23 21:42:26;;;;;;;27.17;6.68;;;;;;;9.45;100.00;100312.41;10447651;28;20465;-89
2022/12/23 21:47:27;;;;;;;28.02;8.60;;;;;;;9.48;100.00;100316.06;10377242;28;20048;-92
2022/12/23 21:52:27;;;;;;;18.63;5.78;;;;;;;9.45;100.00;100329.00;10408122;28;20029;-92
2022/12/23 21:57:28;;;;;;;28.73;7.38;;;;;;;9.45;100.00;100325.47;10409672;28;20041;-93
2022/12/23 22:02:28;;;;;;;23.25;7.30;;;;;;;9.48;100.00;100323.00;10374827;28;20452;-92
2022/12/23 22:07:29;;;;;;;22.38;6.25;;;;;;;9.52;100.00;100335.38;10420106;28;20166;-90
2022/12/23 22:12:29;;;;;;;22.05;4.93;;;;;;;9.50;100.00;100327.47;10412755;28;20119;-91
2022/12/23 22:17:30;;;;;;;24.98;7.43;;;;;;;9.46;100.00;100356.00;10406850;28;20037;-93
2022/12/23 22:22:30;;;;;;;20.92;5.88;;;;;;;9.50;100.00;100358.81;10404425;28;20443;-90
2022/12/23 22:27:31;;;;;;;15.30;6.47;;;;;;;9.49;100.00;100358.75;10403541;28;20037;-90
2022/12/23 22:32:31;;;;;;;23.67;6.78;;;;;;;9.47;100.00;100360.41;10404601;28;20489;-89
2022/12/23 22:37:32;;;;;;;19.30;7.20;;;;;;;9.48;100.00;100378.75;10410217;28;20125;-91
2022/12/23 22:42:32;;;;;;;22.55;6.72;;;;;;;9.50;100.00;100384.03;10443236;28;20048;-93
2022/12/23 22:47:33;;;;;;;32.08;9.18;;;;;;;9.40;100.00;100383.63;10418819;28;20121;-92
2022/12/23 22:52:34;;;;;;;29.35;6.28;;;;;;;9.32;100.00;100394.56;10403462;28;20076;-92
2022/12/23 22:57:34;;;;;;;33.47;7.50;;;;;;;9.14;100.00;100398.13;10403787;28;20047;-91
2022/12/23 23:02:35;;;;;;;16.75;5.05;;;;;;;9.02;100.00;100395.84;10402364;28;20073;-92
2022/12/23 23:07:35;;;;;;;24.20;7.35;;;;;;;8.88;100.00;100404.75;10426562;28;20566;-94
2022/12/23 23:12:36;;;;;;;22.65;7.28;;;;;;;8.75;100.00;100414.59;10420494;28;20047;-93
2022/12/23 23:17:36;;;;;;;32.30;10.60;;;;;;;8.69;100.00;100411.69;10426611;28;20120;-91
2022/12/23 23:22:37;;;;;;;30.40;9.60;;;;;;;8.66;100.00;100427.19;10423378;28;20504;-95